sensor_id;sensor_type;location;lat;lon;timestamp;P1;durP1;ratioP1;P2;durP2;ratioP2
68140;SDS011;54941;52.220;104.306;2022-10-18T00:01:52;4.15;;;1.95;;
68140;SDS011;54941;52.220;104.306;2022-10-18T00:04:18;4.80;;;2.90;;
68140;SDS011;54941;52.220;104.306;2022-10-18T00:06:46;5.85;;;2.45;;
68140;SDS011;54941;52.220;104.306;2022-10-18T00:09:12;5.10;;;2.92;;
68140;SDS011;54941;52.220;104.306;2022-10-18T00:11:39;3.45;;;2.00;;
68140;SDS011;54941;52.220;104.306;2022-10-18T00:14:06;4.50;;;2.33;;
68140;SDS011;54941;52.220;104.306;2022-10-18T00:16:32;5.10;;;2.72;;
68140;SDS011;54941;52.220;104.306;2022-10-18T00:18:59;4.55;;;2.67;;
68140;SDS011;54941;52.220;104.306;2022-10-18T00:21:25;4.57;;;1.88;;
68140;SDS011;54941;52.220;104.306;2022-10-18T00:23:53;5.45;;;2.72;;
68140;SDS011;54941;52.220;104.306;2022-10-18T00:26:20;4.13;;;2.50;;
68140;SDS011;54941;52.220;104.306;2022-10-18T00:28:49;5.13;;;3.35;;
68140;SDS011;54941;52.220;104.306;2022-10-18T00:31:17;5.47;;;2.70;;
68140;SDS011;54941;52.220;104.306;2022-10-18T00:33:46;4.95;;;2.72;;
68140;SDS011;54941;52.220;104.306;2022-10-18T00:36:15;5.25;;;2.88;;
68140;SDS011;54941;52.220;104.306;2022-10-18T00:38:42;5.05;;;2.70;;
68140;SDS011;54941;52.220;104.306;2022-10-18T00:41:13;3.80;;;2.10;;
68140;SDS011;54941;52.220;104.306;2022-10-18T00:43:51;4.20;;;2.50;;
68140;SDS011;54941;52.220;104.306;2022-10-18T00:46:23;5.18;;;2.28;;
68140;SDS011;54941;52.220;104.306;2022-10-18T00:48:50;5.43;;;3.47;;
68140;SDS011;54941;52.220;104.306;2022-10-18T00:51:18;5.65;;;2.97;;
68140;SDS011;54941;52.220;104.306;2022-10-18T00:53:46;6.00;;;3.30;;
68140;SDS011;54941;52.220;104.306;2022-10-18T00:56:15;4.85;;;2.75;;
68140;SDS011;54941;52.220;104.306;2022-10-18T00:58:42;4.45;;;2.88;;
68140;SDS011;54941;52.220;104.306;2022-10-18T01:01:10;4.57;;;2.35;;
68140;SDS011;54941;52.220;104.306;2022-10-18T01:03:37;5.50;;;2.47;;
68140;SDS011;54941;52.220;104.306;2022-10-18T01:06:04;2.85;;;1.73;;
68140;SDS011;54941;52.220;104.306;2022-10-18T01:08:41;3.53;;;1.88;;
68140;SDS011;54941;52.220;104.306;2022-10-18T01:11:20;3.97;;;2.10;;
68140;SDS011;54941;52.220;104.306;2022-10-18T01:14:00;3.70;;;1.98;;
68140;SDS011;54941;52.220;104.306;2022-10-18T01:16:44;4.10;;;1.55;;
68140;SDS011;54941;52.220;104.306;2022-10-18T01:19:24;4.93;;;2.50;;
68140;SDS011;54941;52.220;104.306;2022-10-18T01:22:26;3.50;;;2.05;;
68140;SDS011;54941;52.220;104.306;2022-10-18T01:25:00;4.50;;;1.85;;
68140;SDS011;54941;52.220;104.306;2022-10-18T01:27:44;3.20;;;1.63;;
68140;SDS011;54941;52.220;104.306;2022-10-18T01:33:09;3.85;;;1.88;;
68140;SDS011;54941;52.220;104.306;2022-10-18T01:38:10;2.90;;;1.58;;
68140;SDS011;54941;52.220;104.306;2022-10-18T01:40:39;4.47;;;2.05;;
68140;SDS011;54941;52.220;104.306;2022-10-18T01:43:08;3.83;;;2.10;;
68140;SDS011;54941;52.220;104.306;2022-10-18T01:45:38;4.22;;;2.08;;
68140;SDS011;54941;52.220;104.306;2022-10-18T01:50:33;3.95;;;1.70;;
68140;SDS011;54941;52.220;104.306;2022-10-18T01:53:00;4.75;;;2.20;;
68140;SDS011;54941;52.220;104.306;2022-10-18T01:55:28;5.10;;;1.90;;
68140;SDS011;54941;52.220;104.306;2022-10-18T01:58:02;5.50;;;3.03;;
68140;SDS011;54941;52.220;104.306;2022-10-18T02:00:37;5.10;;;2.55;;
68140;SDS011;54941;52.220;104.306;2022-10-18T02:03:08;3.58;;;1.83;;
68140;SDS011;54941;52.220;104.306;2022-10-18T02:05:41;3.58;;;1.80;;
68140;SDS011;54941;52.220;104.306;2022-10-18T02:08:14;3.53;;;2.10;;
68140;SDS011;54941;52.220;104.306;2022-10-18T02:10:49;2.97;;;1.52;;
68140;SDS011;54941;52.220;104.306;2022-10-18T02:13:19;4.93;;;2.85;;
68140;SDS011;54941;52.220;104.306;2022-10-18T02:16:11;3.28;;;1.55;;
68140;SDS011;54941;52.220;104.306;2022-10-18T02:18:43;3.22;;;1.92;;
68140;SDS011;54941;52.220;104.306;2022-10-18T02:21:14;4.10;;;2.13;;
68140;SDS011;54941;52.220;104.306;2022-10-18T02:23:44;3.45;;;1.90;;
68140;SDS011;54941;52.220;104.306;2022-10-18T02:26:11;2.47;;;1.40;;
68140;SDS011;54941;52.220;104.306;2022-10-18T02:28:39;3.83;;;1.83;;
68140;SDS011;54941;52.220;104.306;2022-10-18T02:31:08;2.80;;;1.33;;
68140;SDS011;54941;52.220;104.306;2022-10-18T02:33:42;4.13;;;2.17;;
68140;SDS011;54941;52.220;104.306;2022-10-18T02:36:15;2.40;;;1.70;;
68140;SDS011;54941;52.220;104.306;2022-10-18T02:38:46;2.63;;;1.63;;
68140;SDS011;54941;52.220;104.306;2022-10-18T02:41:21;2.78;;;1.38;;
68140;SDS011;54941;52.220;104.306;2022-10-18T02:43:48;5.13;;;1.55;;
68140;SDS011;54941;52.220;104.306;2022-10-18T02:46:16;2.88;;;1.75;;
68140;SDS011;54941;52.220;104.306;2022-10-18T02:48:42;2.42;;;1.17;;
68140;SDS011;54941;52.220;104.306;2022-10-18T02:51:09;6.32;;;3.22;;
68140;SDS011;54941;52.220;104.306;2022-10-18T02:53:35;5.85;;;3.50;;
68140;SDS011;54941;52.220;104.306;2022-10-18T02:56:02;3.47;;;2.20;;
68140;SDS011;54941;52.220;104.306;2022-10-18T02:58:28;4.25;;;1.70;;
68140;SDS011;54941;52.220;104.306;2022-10-18T03:00:55;3.45;;;1.80;;
68140;SDS011;54941;52.220;104.306;2022-10-18T03:03:23;3.03;;;1.90;;
68140;SDS011;54941;52.220;104.306;2022-10-18T03:05:49;4.63;;;1.90;;
68140;SDS011;54941;52.220;104.306;2022-10-18T03:08:16;2.67;;;1.65;;
68140;SDS011;54941;52.220;104.306;2022-10-18T03:10:42;2.70;;;1.40;;
68140;SDS011;54941;52.220;104.306;2022-10-18T03:13:09;4.00;;;1.77;;
68140;SDS011;54941;52.220;104.306;2022-10-18T03:15:36;3.08;;;1.70;;
68140;SDS011;54941;52.220;104.306;2022-10-18T03:18:02;3.22;;;1.40;;
68140;SDS011;54941;52.220;104.306;2022-10-18T03:20:32;3.72;;;1.70;;
68140;SDS011;54941;52.220;104.306;2022-10-18T03:22:59;2.78;;;1.70;;
68140;SDS011;54941;52.220;104.306;2022-10-18T03:25:25;2.95;;;1.42;;
68140;SDS011;54941;52.220;104.306;2022-10-18T03:27:52;2.67;;;1.50;;
68140;SDS011;54941;52.220;104.306;2022-10-18T03:30:18;4.47;;;1.77;;
68140;SDS011;54941;52.220;104.306;2022-10-18T03:32:45;3.72;;;2.38;;
68140;SDS011;54941;52.220;104.306;2022-10-18T03:35:11;2.70;;;1.48;;
68140;SDS011;54941;52.220;104.306;2022-10-18T03:37:39;3.70;;;1.65;;
68140;SDS011;54941;52.220;104.306;2022-10-18T03:40:06;4.35;;;1.83;;
68140;SDS011;54941;52.220;104.306;2022-10-18T03:42:33;3.80;;;2.30;;
68140;SDS011;54941;52.220;104.306;2022-10-18T03:45:00;4.72;;;2.00;;
68140;SDS011;54941;52.220;104.306;2022-10-18T03:47:26;3.67;;;1.90;;
68140;SDS011;54941;52.220;104.306;2022-10-18T03:49:52;3.83;;;1.70;;
68140;SDS011;54941;52.220;104.306;2022-10-18T03:52:19;3.75;;;1.73;;
68140;SDS011;54941;52.220;104.306;2022-10-18T03:54:47;6.13;;;3.53;;
68140;SDS011;54941;52.220;104.306;2022-10-18T03:57:13;6.75;;;2.20;;
68140;SDS011;54941;52.220;104.306;2022-10-18T03:59:39;4.88;;;1.95;;
68140;SDS011;54941;52.220;104.306;2022-10-18T04:02:06;4.57;;;1.95;;
68140;SDS011;54941;52.220;104.306;2022-10-18T04:04:32;4.88;;;2.03;;
68140;SDS011;54941;52.220;104.306;2022-10-18T04:06:59;4.90;;;1.95;;
68140;SDS011;54941;52.220;104.306;2022-10-18T04:09:25;5.63;;;1.90;;
68140;SDS011;54941;52.220;104.306;2022-10-18T04:11:54;4.15;;;2.00;;
68140;SDS011;54941;52.220;104.306;2022-10-18T04:14:20;3.72;;;2.30;;
68140;SDS011;54941;52.220;104.306;2022-10-18T04:16:47;5.53;;;1.80;;
68140;SDS011;54941;52.220;104.306;2022-10-18T04:19:13;6.13;;;2.58;;
68140;SDS011;54941;52.220;104.306;2022-10-18T04:21:40;11.65;;;2.70;;
68140;SDS011;54941;52.220;104.306;2022-10-18T04:24:06;3.80;;;2.40;;
68140;SDS011;54941;52.220;104.306;2022-10-18T04:26:33;3.47;;;1.63;;
68140;SDS011;54941;52.220;104.306;2022-10-18T04:29:01;3.13;;;2.05;;
68140;SDS011;54941;52.220;104.306;2022-10-18T04:31:28;4.40;;;1.80;;
68140;SDS011;54941;52.220;104.306;2022-10-18T04:33:54;5.63;;;2.00;;
68140;SDS011;54941;52.220;104.306;2022-10-18T04:36:22;5.80;;;2.20;;
68140;SDS011;54941;52.220;104.306;2022-10-18T04:38:48;3.38;;;2.40;;
68140;SDS011;54941;52.220;104.306;2022-10-18T04:41:14;2.92;;;1.45;;
68140;SDS011;54941;52.220;104.306;2022-10-18T04:43:41;3.47;;;2.00;;
68140;SDS011;54941;52.220;104.306;2022-10-18T04:46:09;3.45;;;1.83;;
68140;SDS011;54941;52.220;104.306;2022-10-18T04:48:35;3.80;;;1.75;;
68140;SDS011;54941;52.220;104.306;2022-10-18T04:51:02;4.95;;;2.35;;
68140;SDS011;54941;52.220;104.306;2022-10-18T04:53:28;6.72;;;2.50;;
68140;SDS011;54941;52.220;104.306;2022-10-18T04:55:55;4.65;;;2.35;;
68140;SDS011;54941;52.220;104.306;2022-10-18T04:58:21;5.03;;;2.33;;
68140;SDS011;54941;52.220;104.306;2022-10-18T05:00:48;5.10;;;2.45;;
68140;SDS011;54941;52.220;104.306;2022-10-18T05:03:16;5.45;;;2.75;;
68140;SDS011;54941;52.220;104.306;2022-10-18T05:05:43;9.40;;;3.83;;
68140;SDS011;54941;52.220;104.306;2022-10-18T05:08:10;6.38;;;3.60;;
68140;SDS011;54941;52.220;104.306;2022-10-18T05:10:36;6.97;;;4.03;;
68140;SDS011;54941;52.220;104.306;2022-10-18T05:13:03;6.80;;;2.55;;
68140;SDS011;54941;52.220;104.306;2022-10-18T05:15:29;5.60;;;2.90;;
68140;SDS011;54941;52.220;104.306;2022-10-18T05:17:56;7.07;;;3.08;;
68140;SDS011;54941;52.220;104.306;2022-10-18T05:20:24;6.70;;;2.83;;
68140;SDS011;54941;52.220;104.306;2022-10-18T05:22:51;6.55;;;3.22;;
68140;SDS011;54941;52.220;104.306;2022-10-18T05:25:17;8.90;;;5.30;;
68140;SDS011;54941;52.220;104.306;2022-10-18T05:27:44;11.70;;;4.80;;
68140;SDS011;54941;52.220;104.306;2022-10-18T05:30:10;10.20;;;4.50;;
68140;SDS011;54941;52.220;104.306;2022-10-18T05:32:37;9.13;;;4.70;;
68140;SDS011;54941;52.220;104.306;2022-10-18T05:35:03;6.28;;;3.95;;
68140;SDS011;54941;52.220;104.306;2022-10-18T05:37:32;7.22;;;3.42;;
68140;SDS011;54941;52.220;104.306;2022-10-18T05:39:58;9.60;;;4.40;;
68140;SDS011;54941;52.220;104.306;2022-10-18T05:42:25;8.63;;;3.70;;
68140;SDS011;54941;52.220;104.306;2022-10-18T05:44:51;11.65;;;3.90;;
68140;SDS011;54941;52.220;104.306;2022-10-18T05:47:17;6.93;;;3.58;;
68140;SDS011;54941;52.220;104.306;2022-10-18T05:49:44;9.85;;;3.85;;
68140;SDS011;54941;52.220;104.306;2022-10-18T05:52:10;6.22;;;3.53;;
68140;SDS011;54941;52.220;104.306;2022-10-18T05:54:38;9.50;;;3.92;;
68140;SDS011;54941;52.220;104.306;2022-10-18T05:57:05;10.80;;;4.82;;
68140;SDS011;54941;52.220;104.306;2022-10-18T05:59:31;6.75;;;2.75;;
68140;SDS011;54941;52.220;104.306;2022-10-18T06:01:58;5.85;;;2.40;;
68140;SDS011;54941;52.220;104.306;2022-10-18T06:04:24;7.18;;;3.00;;
68140;SDS011;54941;52.220;104.306;2022-10-18T06:06:51;8.95;;;2.83;;
68140;SDS011;54941;52.220;104.306;2022-10-18T06:09:17;4.68;;;2.30;;
68140;SDS011;54941;52.220;104.306;2022-10-18T06:11:45;7.45;;;2.70;;
68140;SDS011;54941;52.220;104.306;2022-10-18T06:14:11;9.32;;;4.05;;
68140;SDS011;54941;52.220;104.306;2022-10-18T06:16:38;6.95;;;3.58;;
68140;SDS011;54941;52.220;104.306;2022-10-18T06:19:04;7.45;;;4.00;;
68140;SDS011;54941;52.220;104.306;2022-10-18T06:21:31;10.35;;;4.82;;
68140;SDS011;54941;52.220;104.306;2022-10-18T06:23:57;11.05;;;5.38;;
68140;SDS011;54941;52.220;104.306;2022-10-18T06:26:24;11.70;;;5.90;;
68140;SDS011;54941;52.220;104.306;2022-10-18T06:28:53;14.35;;;6.50;;
68140;SDS011;54941;52.220;104.306;2022-10-18T06:31:20;14.73;;;7.72;;
68140;SDS011;54941;52.220;104.306;2022-10-18T06:33:46;15.00;;;7.20;;
68140;SDS011;54941;52.220;104.306;2022-10-18T06:36:13;12.18;;;6.60;;
68140;SDS011;54941;52.220;104.306;2022-10-18T06:38:40;13.95;;;6.45;;
68140;SDS011;54941;52.220;104.306;2022-10-18T06:41:07;11.68;;;6.00;;
68140;SDS011;54941;52.220;104.306;2022-10-18T06:43:34;16.83;;;6.90;;
68140;SDS011;54941;52.220;104.306;2022-10-18T06:46:02;15.73;;;6.55;;
68140;SDS011;54941;52.220;104.306;2022-10-18T06:48:30;14.77;;;6.20;;
68140;SDS011;54941;52.220;104.306;2022-10-18T06:50:57;12.00;;;5.20;;
68140;SDS011;54941;52.220;104.306;2022-10-18T06:53:25;6.63;;;3.53;;
68140;SDS011;54941;52.220;104.306;2022-10-18T06:55:57;9.25;;;3.50;;
68140;SDS011;54941;52.220;104.306;2022-10-18T06:58:24;10.38;;;4.25;;
68140;SDS011;54941;52.220;104.306;2022-10-18T07:00:51;12.80;;;3.95;;
68140;SDS011;54941;52.220;104.306;2022-10-18T07:03:19;8.23;;;3.20;;
68140;SDS011;54941;52.220;104.306;2022-10-18T07:05:46;12.43;;;3.85;;
68140;SDS011;54941;52.220;104.306;2022-10-18T07:08:12;17.92;;;4.70;;
68140;SDS011;54941;52.220;104.306;2022-10-18T07:10:39;10.23;;;4.65;;
68140;SDS011;54941;52.220;104.306;2022-10-18T07:13:05;12.30;;;4.82;;
68140;SDS011;54941;52.220;104.306;2022-10-18T07:15:32;11.43;;;4.63;;
68140;SDS011;54941;52.220;104.306;2022-10-18T07:17:58;15.68;;;4.68;;
68140;SDS011;54941;52.220;104.306;2022-10-18T07:20:26;8.95;;;3.83;;
68140;SDS011;54941;52.220;104.306;2022-10-18T07:22:54;11.38;;;4.60;;
68140;SDS011;54941;52.220;104.306;2022-10-18T07:25:21;11.23;;;4.43;;
68140;SDS011;54941;52.220;104.306;2022-10-18T07:27:47;14.13;;;4.40;;
68140;SDS011;54941;52.220;104.306;2022-10-18T07:30:13;17.85;;;5.78;;
68140;SDS011;54941;52.220;104.306;2022-10-18T07:32:40;11.30;;;5.20;;
68140;SDS011;54941;52.220;104.306;2022-10-18T07:35:06;10.32;;;4.68;;
68140;SDS011;54941;52.220;104.306;2022-10-18T07:37:35;10.35;;;4.82;;
68140;SDS011;54941;52.220;104.306;2022-10-18T07:40:01;11.05;;;4.20;;
68140;SDS011;54941;52.220;104.306;2022-10-18T07:42:28;13.85;;;5.10;;
68140;SDS011;54941;52.220;104.306;2022-10-18T07:44:55;14.38;;;5.25;;
68140;SDS011;54941;52.220;104.306;2022-10-18T07:47:21;10.98;;;5.30;;
68140;SDS011;54941;52.220;104.306;2022-10-18T07:49:48;11.13;;;4.78;;
68140;SDS011;54941;52.220;104.306;2022-10-18T07:52:14;14.80;;;5.28;;
68140;SDS011;54941;52.220;104.306;2022-10-18T07:54:42;12.82;;;4.75;;
68140;SDS011;54941;52.220;104.306;2022-10-18T07:57:08;11.65;;;4.35;;
68140;SDS011;54941;52.220;104.306;2022-10-18T07:59:35;14.70;;;5.45;;
68140;SDS011;54941;52.220;104.306;2022-10-18T08:02:01;10.95;;;5.10;;
68140;SDS011;54941;52.220;104.306;2022-10-18T08:04:27;16.70;;;5.38;;
68140;SDS011;54941;52.220;104.306;2022-10-18T08:06:54;12.90;;;4.93;;
68140;SDS011;54941;52.220;104.306;2022-10-18T08:09:20;16.67;;;7.10;;
68140;SDS011;54941;52.220;104.306;2022-10-18T08:11:48;16.15;;;5.00;;
68140;SDS011;54941;52.220;104.306;2022-10-18T08:14:15;13.00;;;5.85;;
68140;SDS011;54941;52.220;104.306;2022-10-18T08:16:41;16.17;;;5.43;;
68140;SDS011;54941;52.220;104.306;2022-10-18T08:19:08;11.30;;;4.57;;
68140;SDS011;54941;52.220;104.306;2022-10-18T08:21:34;13.30;;;5.40;;
68140;SDS011;54941;52.220;104.306;2022-10-18T08:24:00;13.80;;;4.85;;
68140;SDS011;54941;52.220;104.306;2022-10-18T08:26:27;16.50;;;5.82;;
68140;SDS011;54941;52.220;104.306;2022-10-18T08:28:55;10.73;;;5.90;;
68140;SDS011;54941;52.220;104.306;2022-10-18T08:31:21;16.40;;;5.10;;
68140;SDS011;54941;52.220;104.306;2022-10-18T08:33:48;10.18;;;4.43;;
68140;SDS011;54941;52.220;104.306;2022-10-18T08:36:15;13.25;;;5.53;;
68140;SDS011;54941;52.220;104.306;2022-10-18T08:38:41;17.08;;;5.43;;
68140;SDS011;54941;52.220;104.306;2022-10-18T08:41:24;12.90;;;6.22;;
68140;SDS011;54941;52.220;104.306;2022-10-18T08:44:05;12.23;;;5.22;;
68140;SDS011;54941;52.220;104.306;2022-10-18T08:46:39;16.80;;;5.82;;
68140;SDS011;54941;52.220;104.306;2022-10-18T08:49:10;14.10;;;5.15;;
68140;SDS011;54941;52.220;104.306;2022-10-18T08:51:44;14.02;;;5.35;;
68140;SDS011;54941;52.220;104.306;2022-10-18T08:54:13;18.70;;;5.68;;
68140;SDS011;54941;52.220;104.306;2022-10-18T08:56:46;13.80;;;5.55;;
68140;SDS011;54941;52.220;104.306;2022-10-18T08:59:22;16.60;;;4.70;;
68140;SDS011;54941;52.220;104.306;2022-10-18T09:01:51;16.48;;;5.53;;
68140;SDS011;54941;52.220;104.306;2022-10-18T09:04:30;13.10;;;5.10;;
68140;SDS011;54941;52.220;104.306;2022-10-18T09:07:11;14.68;;;5.15;;
68140;SDS011;54941;52.220;104.306;2022-10-18T09:09:50;13.68;;;5.28;;
68140;SDS011;54941;52.220;104.306;2022-10-18T09:12:28;12.93;;;4.85;;
68140;SDS011;54941;52.220;104.306;2022-10-18T09:15:15;16.38;;;6.30;;
68140;SDS011;54941;52.220;104.306;2022-10-18T09:17:49;15.85;;;6.20;;
68140;SDS011;54941;52.220;104.306;2022-10-18T09:20:26;13.48;;;5.90;;
68140;SDS011;54941;52.220;104.306;2022-10-18T09:23:01;14.55;;;5.70;;
68140;SDS011;54941;52.220;104.306;2022-10-18T09:25:42;14.93;;;6.72;;
68140;SDS011;54941;52.220;104.306;2022-10-18T09:28:13;14.32;;;5.78;;
68140;SDS011;54941;52.220;104.306;2022-10-18T09:30:47;16.05;;;5.80;;
68140;SDS011;54941;52.220;104.306;2022-10-18T09:36:09;18.88;;;8.02;;
68140;SDS011;54941;52.220;104.306;2022-10-18T09:38:40;20.58;;;7.93;;
68140;SDS011;54941;52.220;104.306;2022-10-18T09:41:11;17.45;;;6.60;;
68140;SDS011;54941;52.220;104.306;2022-10-18T09:43:46;20.17;;;7.38;;
68140;SDS011;54941;52.220;104.306;2022-10-18T09:46:20;23.40;;;8.77;;
68140;SDS011;54941;52.220;104.306;2022-10-18T09:48:52;22.77;;;9.15;;
68140;SDS011;54941;52.220;104.306;2022-10-18T09:51:23;30.27;;;9.48;;
68140;SDS011;54941;52.220;104.306;2022-10-18T09:54:04;20.48;;;8.15;;
68140;SDS011;54941;52.220;104.306;2022-10-18T09:56:40;19.08;;;7.50;;
68140;SDS011;54941;52.220;104.306;2022-10-18T09:59:17;25.25;;;10.45;;
68140;SDS011;54941;52.220;104.306;2022-10-18T10:01:56;24.27;;;9.93;;
68140;SDS011;54941;52.220;104.306;2022-10-18T10:04:22;25.23;;;9.20;;
68140;SDS011;54941;52.220;104.306;2022-10-18T10:06:49;18.73;;;8.10;;
68140;SDS011;54941;52.220;104.306;2022-10-18T10:09:17;22.00;;;9.45;;
68140;SDS011;54941;52.220;104.306;2022-10-18T10:11:50;20.83;;;10.32;;
68140;SDS011;54941;52.220;104.306;2022-10-18T10:14:17;18.85;;;7.13;;
68140;SDS011;54941;52.220;104.306;2022-10-18T10:16:49;31.33;;;12.55;;
68140;SDS011;54941;52.220;104.306;2022-10-18T10:19:19;26.63;;;10.43;;
68140;SDS011;54941;52.220;104.306;2022-10-18T10:21:49;26.50;;;9.35;;
68140;SDS011;54941;52.220;104.306;2022-10-18T10:24:20;22.27;;;9.05;;
68140;SDS011;54941;52.220;104.306;2022-10-18T10:26:56;29.35;;;10.07;;
68140;SDS011;54941;52.220;104.306;2022-10-18T10:29:46;31.48;;;12.50;;
68140;SDS011;54941;52.220;104.306;2022-10-18T10:32:15;28.73;;;12.90;;
68140;SDS011;54941;52.220;104.306;2022-10-18T10:34:45;36.47;;;12.23;;
68140;SDS011;54941;52.220;104.306;2022-10-18T10:37:25;28.55;;;11.73;;
68140;SDS011;54941;52.220;104.306;2022-10-18T10:40:09;23.25;;;8.50;;
68140;SDS011;54941;52.220;104.306;2022-10-18T10:42:51;23.30;;;10.18;;
68140;SDS011;54941;52.220;104.306;2022-10-18T10:45:52;24.90;;;8.25;;
68140;SDS011;54941;52.220;104.306;2022-10-18T10:48:22;30.00;;;11.48;;
68140;SDS011;54941;52.220;104.306;2022-10-18T10:50:52;26.85;;;9.90;;
68140;SDS011;54941;52.220;104.306;2022-10-18T10:56:05;24.45;;;8.88;;
68140;SDS011;54941;52.220;104.306;2022-10-18T10:58:38;24.00;;;9.38;;
68140;SDS011;54941;52.220;104.306;2022-10-18T11:01:16;31.45;;;11.10;;
68140;SDS011;54941;52.220;104.306;2022-10-18T11:03:48;26.73;;;9.45;;
68140;SDS011;54941;52.220;104.306;2022-10-18T11:06:31;25.67;;;8.60;;
68140;SDS011;54941;52.220;104.306;2022-10-18T11:12:16;23.42;;;8.27;;
68140;SDS011;54941;52.220;104.306;2022-10-18T11:15:01;25.15;;;9.77;;
68140;SDS011;54941;52.220;104.306;2022-10-18T11:17:33;27.83;;;8.20;;
68140;SDS011;54941;52.220;104.306;2022-10-18T11:20:10;18.58;;;8.30;;
68140;SDS011;54941;52.220;104.306;2022-10-18T11:22:56;24.13;;;9.18;;
68140;SDS011;54941;52.220;104.306;2022-10-18T11:25:26;28.48;;;10.32;;
68140;SDS011;54941;52.220;104.306;2022-10-18T11:28:08;27.30;;;9.20;;
68140;SDS011;54941;52.220;104.306;2022-10-18T11:30:48;25.23;;;9.00;;
68140;SDS011;54941;52.220;104.306;2022-10-18T11:33:26;30.55;;;12.07;;
68140;SDS011;54941;52.220;104.306;2022-10-18T11:36:06;28.73;;;11.30;;
68140;SDS011;54941;52.220;104.306;2022-10-18T11:38:40;30.33;;;12.18;;
68140;SDS011;54941;52.220;104.306;2022-10-18T11:41:18;25.55;;;11.38;;
68140;SDS011;54941;52.220;104.306;2022-10-18T11:43:54;24.35;;;11.43;;
68140;SDS011;54941;52.220;104.306;2022-10-18T11:46:31;40.72;;;13.63;;
68140;SDS011;54941;52.220;104.306;2022-10-18T11:49:10;21.92;;;10.15;;
68140;SDS011;54941;52.220;104.306;2022-10-18T11:51:52;36.00;;;13.00;;
68140;SDS011;54941;52.220;104.306;2022-10-18T11:54:35;32.72;;;12.32;;
68140;SDS011;54941;52.220;104.306;2022-10-18T11:57:27;30.65;;;13.23;;
68140;SDS011;54941;52.220;104.306;2022-10-18T12:00:07;41.88;;;13.60;;
68140;SDS011;54941;52.220;104.306;2022-10-18T12:05:37;29.77;;;12.38;;
68140;SDS011;54941;52.220;104.306;2022-10-18T12:08:07;29.45;;;12.48;;
68140;SDS011;54941;52.220;104.306;2022-10-18T12:10:37;35.83;;;15.48;;
68140;SDS011;54941;52.220;104.306;2022-10-18T12:13:10;35.55;;;12.20;;
68140;SDS011;54941;52.220;104.306;2022-10-18T12:15:45;35.83;;;16.23;;
68140;SDS011;54941;52.220;104.306;2022-10-18T12:18:14;35.70;;;13.82;;
68140;SDS011;54941;52.220;104.306;2022-10-18T12:20:44;40.90;;;17.23;;
68140;SDS011;54941;52.220;104.306;2022-10-18T12:23:13;41.63;;;15.27;;
68140;SDS011;54941;52.220;104.306;2022-10-18T12:25:45;41.25;;;16.45;;
68140;SDS011;54941;52.220;104.306;2022-10-18T12:28:17;40.38;;;19.65;;
68140;SDS011;54941;52.220;104.306;2022-10-18T12:30:56;37.38;;;15.43;;
68140;SDS011;54941;52.220;104.306;2022-10-18T12:33:33;33.63;;;15.18;;
68140;SDS011;54941;52.220;104.306;2022-10-18T12:36:05;31.27;;;12.70;;
68140;SDS011;54941;52.220;104.306;2022-10-18T12:38:40;42.92;;;14.82;;
68140;SDS011;54941;52.220;104.306;2022-10-18T12:41:11;36.40;;;17.13;;
68140;SDS011;54941;52.220;104.306;2022-10-18T12:43:49;35.88;;;15.82;;
68140;SDS011;54941;52.220;104.306;2022-10-18T12:46:17;41.78;;;17.75;;
68140;SDS011;54941;52.220;104.306;2022-10-18T12:48:44;48.55;;;18.05;;
68140;SDS011;54941;52.220;104.306;2022-10-18T12:51:24;39.28;;;18.13;;
68140;SDS011;54941;52.220;104.306;2022-10-18T12:53:51;35.47;;;15.07;;
68140;SDS011;54941;52.220;104.306;2022-10-18T12:56:36;30.05;;;11.93;;
68140;SDS011;54941;52.220;104.306;2022-10-18T13:02:29;28.38;;;14.05;;
68140;SDS011;54941;52.220;104.306;2022-10-18T13:04:56;23.17;;;11.25;;
68140;SDS011;54941;52.220;104.306;2022-10-18T13:07:34;31.02;;;14.55;;
68140;SDS011;54941;52.220;104.306;2022-10-18T13:16:01;31.70;;;15.30;;
68140;SDS011;54941;52.220;104.306;2022-10-18T13:18:34;24.40;;;11.55;;
68140;SDS011;54941;52.220;104.306;2022-10-18T13:21:12;28.65;;;13.85;;
68140;SDS011;54941;52.220;104.306;2022-10-18T13:23:58;30.08;;;13.30;;
68140;SDS011;54941;52.220;104.306;2022-10-18T13:26:37;31.00;;;15.75;;
68140;SDS011;54941;52.220;104.306;2022-10-18T13:29:21;28.98;;;13.55;;
68140;SDS011;54941;52.220;104.306;2022-10-18T13:31:58;35.30;;;15.27;;
68140;SDS011;54941;52.220;104.306;2022-10-18T13:34:32;29.17;;;13.25;;
68140;SDS011;54941;52.220;104.306;2022-10-18T13:37:01;25.67;;;10.60;;
68140;SDS011;54941;52.220;104.306;2022-10-18T13:39:29;24.80;;;11.70;;
68140;SDS011;54941;52.220;104.306;2022-10-18T13:47:56;32.78;;;14.35;;
68140;SDS011;54941;52.220;104.306;2022-10-18T13:51:01;24.50;;;11.30;;
68140;SDS011;54941;52.220;104.306;2022-10-18T13:53:44;29.05;;;12.98;;
68140;SDS011;54941;52.220;104.306;2022-10-18T13:59:19;30.40;;;13.25;;
68140;SDS011;54941;52.220;104.306;2022-10-18T14:02:14;30.08;;;12.52;;
68140;SDS011;54941;52.220;104.306;2022-10-18T14:05:04;38.53;;;17.60;;
68140;SDS011;54941;52.220;104.306;2022-10-18T14:07:42;32.45;;;13.77;;
68140;SDS011;54941;52.220;104.306;2022-10-18T14:10:13;33.67;;;13.48;;
68140;SDS011;54941;52.220;104.306;2022-10-18T14:12:48;27.63;;;12.02;;
68140;SDS011;54941;52.220;104.306;2022-10-18T14:15:19;27.60;;;11.63;;
68140;SDS011;54941;52.220;104.306;2022-10-18T14:17:50;23.48;;;10.43;;
68140;SDS011;54941;52.220;104.306;2022-10-18T14:20:23;27.23;;;11.60;;
68140;SDS011;54941;52.220;104.306;2022-10-18T14:22:52;29.30;;;10.82;;
68140;SDS011;54941;52.220;104.306;2022-10-18T14:25:26;24.73;;;10.35;;
68140;SDS011;54941;52.220;104.306;2022-10-18T14:28:04;26.88;;;11.65;;
68140;SDS011;54941;52.220;104.306;2022-10-18T14:30:34;33.13;;;11.80;;
68140;SDS011;54941;52.220;104.306;2022-10-18T14:33:01;24.33;;;9.18;;
68140;SDS011;54941;52.220;104.306;2022-10-18T14:35:30;27.38;;;10.27;;
68140;SDS011;54941;52.220;104.306;2022-10-18T14:37:57;26.65;;;10.45;;
68140;SDS011;54941;52.220;104.306;2022-10-18T14:40:25;23.38;;;9.77;;
68140;SDS011;54941;52.220;104.306;2022-10-18T14:43:00;26.30;;;10.75;;
68140;SDS011;54941;52.220;104.306;2022-10-18T14:45:27;27.83;;;10.90;;
68140;SDS011;54941;52.220;104.306;2022-10-18T14:47:54;33.00;;;11.23;;
68140;SDS011;54941;52.220;104.306;2022-10-18T14:50:30;26.10;;;10.95;;
68140;SDS011;54941;52.220;104.306;2022-10-18T14:52:57;21.58;;;9.65;;
68140;SDS011;54941;52.220;104.306;2022-10-18T14:55:30;32.35;;;15.65;;
68140;SDS011;54941;52.220;104.306;2022-10-18T14:57:57;26.08;;;10.20;;
68140;SDS011;54941;52.220;104.306;2022-10-18T15:00:24;21.55;;;11.13;;
68140;SDS011;54941;52.220;104.306;2022-10-18T15:02:57;20.77;;;9.23;;
68140;SDS011;54941;52.220;104.306;2022-10-18T15:05:23;24.48;;;9.30;;
68140;SDS011;54941;52.220;104.306;2022-10-18T15:07:51;22.92;;;10.13;;
68140;SDS011;54941;52.220;104.306;2022-10-18T15:10:20;19.15;;;9.43;;